Euskara    
Meteorología y climatología de Navarra
Datos de la estación - Meteo Navarra

Estación de Tafalla GN

Altitud 430 m.


Datos desde el 22/11/2020 hasta el 23/11/2020 en horario solar
Los datos son PROVISIONALES

Anterior Página 1 de 1 Siguiente Descargar: Formato para Excel 2000 o superior   Formato csv   Formato para OpenOffice Calc
Fecha Temperatura Humedad relativa Radiación global Insolación Precipitación Vel. viento 10 m Vel. viento 10 m Dir. viento 10 m
°C % W/m² s l/m² m/s km/h °
22/11/2020 0:00 2.8 73 0.0 0 0.0 2.8 10.2 19
22/11/2020 0:10 2.8 74 0.0 0 0.0 2.6 9.2 19
22/11/2020 0:20 2.0 75 0.0 0 0.0 2.4 8.6 27
22/11/2020 0:30 1.7 78 0.0 0 0.0 2.7 9.6 19
22/11/2020 0:40 2.1 75 0.0 0 0.0 3.4 12.3 23
22/11/2020 0:50 1.7 78 0.0 0 0.0 4.0 14.4 20
22/11/2020 1:00 2.1 76 0.0 0 0.0 3.9 13.9 22
22/11/2020 1:10 2.4 75 0.0 0 0.0 3.9 13.9 19
22/11/2020 1:20 2.3 75 0.0 0 0.0 2.8 10.2 17
22/11/2020 1:30 1.8 77 0.0 0 0.0 2.8 9.9 20
22/11/2020 1:40 2.1 76 0.0 0 0.0 3.0 10.7 20
22/11/2020 1:50 1.7 78 0.0 0 0.0 3.5 12.6 22
22/11/2020 2:00 2.0 77 0.0 0 0.0 2.8 10.2 14
22/11/2020 2:10 1.7 77 0.0 0 0.0 3.5 12.6 21
22/11/2020 2:20 1.7 78 0.0 0 0.0 3.6 13.1 16
22/11/2020 2:30 1.4 79 0.0 0 0.0 2.9 10.3 19
22/11/2020 2:40 1.3 79 0.0 0 0.0 2.1 7.7 11
22/11/2020 2:50 0.8 81 0.0 0 0.0 1.8 6.3 14
22/11/2020 3:00 1.2 80 0.0 0 0.0 2.2 7.8 9
22/11/2020 3:10 1.4 79 0.0 0 0.0 2.5 8.9 11
22/11/2020 3:20 1.4 78 0.0 0 0.0 2.6 9.3 13
22/11/2020 3:30 1.1 79 0.0 0 0.0 2.6 9.5 9
22/11/2020 3:40 1.3 79 0.0 0 0.0 2.7 9.5 12
22/11/2020 3:50 1.3 79 0.0 0 0.0 3.3 11.8 15
22/11/2020 4:00 1.3 79 0.0 0 0.0 3.4 12.1 16
22/11/2020 4:10 0.9 80 0.0 0 0.0 3.2 11.4 20
22/11/2020 4:20 1.1 80 0.0 0 0.0 2.9 10.5 18
22/11/2020 4:30 1.3 79 0.0 0 0.0 3.6 12.8 15
22/11/2020 4:40 1.8 77 0.0 0 0.0 3.6 12.9 15
22/11/2020 4:50 1.5 78 0.0 0 0.0 1.8 6.6 26
22/11/2020 5:00 1.3 78 0.0 0 0.0 1.5 5.4 24
22/11/2020 5:10 1.0 79 0.0 0 0.0 2.0 7.3 13
22/11/2020 5:20 0.4 81 0.0 0 0.0 2.6 9.4 14
22/11/2020 5:30 0.5 82 0.0 0 0.0 3.3 11.9 11
22/11/2020 5:40 0.4 81 0.0 0 0.0 3.8 13.8 20
22/11/2020 5:50 0.5 81 0.0 0 0.0 3.7 13.3 18
22/11/2020 6:00 0.7 81 0.0 0 0.0 3.6 12.9 18
22/11/2020 6:10 0.9 79 0.0 0 0.0 3.3 11.8 16
22/11/2020 6:20 0.5 80 0.0 0 0.0 3.6 13.0 23
22/11/2020 6:30 0.2 82 0.0 0 0.0 2.6 9.5 26
22/11/2020 6:40 -0.1 83 0.0 0 0.0 2.9 10.5 27
22/11/2020 6:50 -0.2 83 0.0 0 0.0 3.1 11.1 26
22/11/2020 7:00 0.1 83 0.0 0 0.0 3.0 10.9 24
22/11/2020 7:10 0.2 82 0.0 0 0.0 2.5 8.9 17
22/11/2020 7:20 0.2 82 6.5 0 0.0 2.8 10.2 15
22/11/2020 7:30 0.3 81 28.5 246 0.0 3.4 12.2 14
22/11/2020 7:40 0.4 81 46.9 600 0.0 4.0 14.4 21
22/11/2020 7:50 0.7 80 64.9 600 0.0 3.7 13.4 18
22/11/2020 8:00 1.3 78 80.8 600 0.0 4.1 14.7 17
22/11/2020 8:10 1.7 76 95.5 600 0.0 3.6 12.9 14
22/11/2020 8:20 2.4 75 110.9 600 0.0 2.9 10.3 15
22/11/2020 8:30 3.4 71 127.6 600 0.0 2.8 10.1 12
22/11/2020 8:40 3.7 70 144.7 600 0.0 2.8 10.2 14
22/11/2020 8:50 4.4 68 162.1 600 0.0 2.2 7.9 16
22/11/2020 9:00 4.8 67 181.9 600 0.0 1.8 6.6 30
22/11/2020 9:10 5.1 67 202.6 600 0.0 1.8 6.5 30
22/11/2020 9:20 5.5 66 224.5 600 0.0 1.2 4.4 73
22/11/2020 9:30 5.4 65 248.5 600 0.0 1.2 4.4 88
22/11/2020 9:40 5.9 64 272.3 600 0.0 0.4 1.5 109
22/11/2020 9:50 6.8 62 297.5 600 0.0 0.3 0.9 172
22/11/2020 10:00 6.4 67 327.7 600 0.0 1.8 6.4 285
22/11/2020 10:10 5.5 73 357.0 600 0.0 2.2 8.0 282
22/11/2020 10:20 5.6 72 382.6 600 0.0 2.2 7.7 280
22/11/2020 10:30 5.9 71 406.7 600 0.0 1.9 6.9 272
22/11/2020 10:40 6.0 70 427.7 600 0.0 2.1 7.5 281
22/11/2020 10:50 6.3 68 443.9 600 0.0 1.4 5.1 287
22/11/2020 11:00 6.7 66 455.8 600 0.0 1.7 6.2 281
22/11/2020 11:10 7.2 64 464.7 600 0.0 1.8 6.5 289
22/11/2020 11:20 7.5 63 470.6 600 0.0 1.4 4.9 288
22/11/2020 11:30 8.2 61 474.5 600 0.0 1.1 4.0 269
22/11/2020 11:40 8.3 61 479.1 600 0.0 1.5 5.3 272
22/11/2020 11:50 8.9 59 482.3 600 0.0 1.2 4.3 241
22/11/2020 12:00 9.7 56 481.9 600 0.0 1.0 3.7 233
22/11/2020 12:10 9.8 52 479.5 600 0.0 0.6 2.0 277
22/11/2020 12:20 9.7 53 477.8 600 0.0 0.7 2.7 283
22/11/2020 12:30 9.9 52 474.3 600 0.0 1.4 5.0 285
22/11/2020 12:40 10.3 54 467.9 600 0.0 1.3 4.7 234
22/11/2020 12:50 10.6 52 460.0 600 0.0 1.4 4.9 239
22/11/2020 13:00 10.5 53 451.8 600 0.0 1.6 5.6 262
22/11/2020 13:10 10.9 50 441.7 600 0.0 1.5 5.3 248
22/11/2020 13:20 10.9 50 430.7 600 0.0 1.4 4.9 246
22/11/2020 13:30 10.8 50 413.6 600 0.0 0.9 3.1 193
22/11/2020 13:40 11.1 49 392.9 600 0.0 0.6 2.3 275
22/11/2020 13:50 11.2 49 376.9 600 0.0 1.0 3.7 250
22/11/2020 14:00 11.4 48 356.0 600 0.0 0.9 3.2 228
22/11/2020 14:10 11.6 47 338.1 600 0.0 0.4 1.3 198
22/11/2020 14:20 11.8 47 309.5 600 0.0 1.0 3.4 236
22/11/2020 14:30 11.8 47 302.3 600 0.0 0.9 3.4 263
22/11/2020 14:40 11.8 47 267.6 600 0.0 1.3 4.5 222
22/11/2020 14:50 11.7 47 253.4 600 0.0 1.1 4.0 226
22/11/2020 15:00 11.8 47 235.6 600 0.0 1.3 4.6 228
22/11/2020 15:10 11.6 47 172.0 600 0.0 1.1 3.9 242
22/11/2020 15:20 11.5 47 151.9 600 0.0 1.2 4.4 230
22/11/2020 15:30 11.4 47 150.8 600 0.0 1.2 4.2 247
22/11/2020 15:40 11.4 46 129.1 600 0.0 1.1 4.1 244
22/11/2020 15:50 11.4 46 105.4 600 0.0 0.8 2.8 218
22/11/2020 16:00 11.1 48 82.7 600 0.0 1.1 3.9 186
22/11/2020 16:10 10.8 50 59.2 600 0.0 1.1 3.8 192
22/11/2020 16:20 10.3 51 35.7 482 0.0 0.9 3.1 193
22/11/2020 16:30 9.7 53 8.1 0 0.0 0.6 2.1 185
22/11/2020 16:40 8.7 55 0.0 0 0.0 0.5 1.9 160
22/11/2020 16:50 8.2 57 0.0 0 0.0 0.0 0.1 144
22/11/2020 17:00 7.8 57 0.0 0 0.0 0.0 0.1 79
22/11/2020 17:10 7.6 58 0.0 0 0.0 0.4 1.3 91
22/11/2020 17:20 7.6 59 0.0 0 0.0 0.0 0.1 88
22/11/2020 17:30 7.2 60 0.0 0 0.0 0.6 2.0 64
22/11/2020 17:40 6.6 64 0.0 0 0.0 0.8 2.8 30
22/11/2020 17:50 6.1 65 0.0 0 0.0 0.7 2.4 24
22/11/2020 18:00 5.8 67 0.0 0 0.0 1.3 4.5 19
22/11/2020 18:10 5.8 68 0.0 0 0.0 2.5 8.9 18
22/11/2020 18:20 5.8 68 0.0 0 0.0 2.6 9.4 16
22/11/2020 18:30 5.8 68 0.0 0 0.0 3.2 11.5 17
22/11/2020 18:40 5.8 68 0.0 0 0.0 3.4 12.4 15
22/11/2020 18:50 5.6 69 0.0 0 0.0 3.9 14.1 20
22/11/2020 19:00 4.9 72 0.0 0 0.0 3.5 12.7 21
22/11/2020 19:10 5.0 71 0.0 0 0.0 4.2 15.1 17
22/11/2020 19:20 5.0 71 0.0 0 0.0 3.4 12.4 20
22/11/2020 19:30 5.0 72 0.0 0 0.0 3.5 12.6 16
22/11/2020 19:40 5.0 72 0.0 0 0.0 3.3 12.0 17
22/11/2020 19:50 4.8 72 0.0 0 0.0 3.2 11.7 21
22/11/2020 20:00 4.4 74 0.0 0 0.0 3.6 12.9 19
22/11/2020 20:10 4.5 73 0.0 0 0.0 4.3 15.3 19
22/11/2020 20:20 4.1 75 0.0 0 0.0 3.8 13.8 21
22/11/2020 20:30 4.2 74 0.0 0 0.0 4.3 15.5 20
22/11/2020 20:40 3.9 76 0.0 0 0.0 4.2 14.9 17
22/11/2020 20:50 4.0 75 0.0 0 0.0 4.3 15.6 19
22/11/2020 21:00 3.6 76 0.0 0 0.0 3.4 12.2 19
22/11/2020 21:10 3.1 78 0.0 0 0.0 3.1 11.2 19
22/11/2020 21:20 2.7 80 0.0 0 0.0 3.2 11.3 17
22/11/2020 21:30 2.9 80 0.0 0 0.0 3.3 11.9 15
22/11/2020 21:40 3.1 78 0.0 0 0.0 3.3 11.8 16
22/11/2020 21:50 3.0 79 0.0 0 0.0 3.7 13.4 17
22/11/2020 22:00 3.2 77 0.0 0 0.0 4.3 15.6 19
22/11/2020 22:10 3.2 77 0.0 0 0.0 4.2 15.1 18
22/11/2020 22:20 3.0 78 0.0 0 0.0 4.5 16.2 21
22/11/2020 22:30 3.0 78 0.0 0 0.0 4.0 14.4 15
22/11/2020 22:40 2.6 79 0.0 0 0.0 4.3 15.6 21
22/11/2020 22:50 2.4 80 0.0 0 0.0 3.9 14.0 18
22/11/2020 23:00 2.0 81 0.0 0 0.0 2.9 10.3 17
22/11/2020 23:10 2.6 80 0.0 0 0.0 3.9 14.1 17
22/11/2020 23:20 2.8 78 0.0 0 0.0 4.5 16.2 19
22/11/2020 23:30 2.9 78 0.0 0 0.0 4.5 16.3 17
22/11/2020 23:40 3.1 77 0.0 0 0.0 4.8 17.2 19
22/11/2020 23:50 3.2 76 0.0 0 0.0 3.8 13.5 17
Anterior Página 1 de 1 Siguiente

NOTA: Tipo de datos según el color:
   - Valores diarios o 10 minutos correctos
   - Valores diarios calculados a partir de un número de datos 10 minutos menor que 144 y mayor que 120, o de un número de datos semihorarios menor que 48 y mayor que 40 (caso de las estaciones de INTIA Y Ministerio)
   - Valores diez minutos estimados


Contacto        Enlaces        Aviso legal